Muren, Mongolia
Current Conditions -  °F | °C
As of 4:30 PM on Sunday 23 Nov 2014 (Local Time) from UIII Reporting Station
Clear Clear  
Wind Chill: 20°   Ceiling: Unl
Heat Index: 30°   Visibility: 6mi
Dew Point: 14°   Wind: 13mph
Humidity: 51%   Direction: 160°SSE
Pressure: 29.94"   Gusts: NA
Location:  49.66°N, 100.1°E
Report Text: UIII 230830Z 16006MPS CAVOK M01/M10 Q1014 NOSIG RMK QFE716/095430350150
Loading
Personal Weather Stations






























Interactive Weather Map New forecast layout! Learn more

10-Day Weather Forecast

Advertisements
Track Severe Weather on mobile